Terminal Aerodrome Forecast
Issued by NWS Binghamton, NY

Home | Current Version | Previous Version | Text Only | Print | Product List | Glossary On
Versions: 1 2 3 4 5 6 7 8 9 10 11 12 13 14 15 16 17 18 19 20 21 22 23 24 25 26 27 28
000
FTUS41 KBGM 031947 AAA
TAFBGM
TAF AMD
KBGM 031947Z 0320/0418 00000KT 2SM -DZ BR BKN009 OVC035
     FM040200 VRB02KT 3SM BR OVC012
     FM040800 15003KT 2SM -DZ BR OVC009
      TEMPO 0409/0413 3/4SM BR OVC005
     FM041500 14008KT 4SM -RA BR OVC018=

USA.gov is the U.S. government's official web portal to all federal, state and local government web resources and services.